createdAt,value
2022-11-12T00:00:55.757Z,6.09
2022-11-12T00:03:22.559Z,6.15
2022-11-12T00:05:50.832Z,5.98
2022-11-12T00:08:18.540Z,5.79
2022-11-12T00:10:45.857Z,5.59
2022-11-12T00:13:13.294Z,5.46
2022-11-12T00:15:40.154Z,5.40
2022-11-12T00:18:07.813Z,5.35
2022-11-12T00:20:34.967Z,5.34
2022-11-12T00:23:01.630Z,5.30
2022-11-12T00:25:28.776Z,5.23
2022-11-12T00:28:01.536Z,5.23
2022-11-12T00:30:28.215Z,5.28
2022-11-12T00:32:54.900Z,5.33
2022-11-12T00:35:21.568Z,5.51
2022-11-12T00:37:48.300Z,5.50
2022-11-12T00:40:15.288Z,5.43
2022-11-12T00:42:42.075Z,5.38
2022-11-12T00:45:09.863Z,5.37
2022-11-12T00:47:36.487Z,5.31
2022-11-12T00:50:03.197Z,5.27
2022-11-12T00:52:29.710Z,5.30
2022-11-12T00:54:56.307Z,5.27
2022-11-12T00:57:22.965Z,5.23
2022-11-12T00:59:49.589Z,5.22
2022-11-12T01:02:16.223Z,5.19
2022-11-12T01:04:42.782Z,5.14
2022-11-12T01:07:09.413Z,5.24
2022-11-12T01:09:36.028Z,5.33
2022-11-12T01:12:02.792Z,5.37
2022-11-12T01:14:29.424Z,5.48
2022-11-12T01:16:56.075Z,5.60
2022-11-12T01:19:22.693Z,5.63
2022-11-12T01:21:49.357Z,5.50
2022-11-12T01:24:16.161Z,5.50
2022-11-12T01:26:42.812Z,5.68
2022-11-12T01:29:09.408Z,5.53
2022-11-12T01:31:38.354Z,5.36
2022-11-12T01:34:07.717Z,5.31
2022-11-12T01:36:37.838Z,5.24
2022-11-12T01:39:06.242Z,5.01
2022-11-12T01:41:35.200Z,4.95
2022-11-12T01:44:16.964Z,4.95
2022-11-12T01:47:21.123Z,4.87
2022-11-12T01:49:53.236Z,4.81
2022-11-12T01:52:27.507Z,4.78
2022-11-12T01:54:57.491Z,4.83
2022-11-12T01:57:34.652Z,4.84
2022-11-12T02:00:07.357Z,4.98
2022-11-12T02:02:36.327Z,4.90
2022-11-12T02:05:06.506Z,4.77
2022-11-12T02:07:34.679Z,4.74
2022-11-12T02:10:02.621Z,4.84
2022-11-12T02:12:48.858Z,4.78
2022-11-12T02:15:15.621Z,4.71
2022-11-12T02:17:42.986Z,4.69
2022-11-12T02:20:11.537Z,4.67
2022-11-12T02:22:38.165Z,4.74
2022-11-12T02:25:05.403Z,4.76
2022-11-12T02:27:32.374Z,4.78
2022-11-12T02:29:58.965Z,4.81
2022-11-12T02:32:25.617Z,4.90
2022-11-12T02:34:52.325Z,4.90
2022-11-12T02:37:18.897Z,4.84
2022-11-12T02:39:45.570Z,4.79
2022-11-12T02:43:24.209Z,4.84
2022-11-12T02:45:50.737Z,4.80
2022-11-12T02:48:19.291Z,4.76
2022-11-12T02:50:47.522Z,4.76
2022-11-12T02:53:14.144Z,4.94
2022-11-12T02:55:40.596Z,4.95
2022-11-12T02:58:07.058Z,4.96
2022-11-12T03:00:33.476Z,5.00
2022-11-12T03:03:00.014Z,4.88
2022-11-12T03:05:31.140Z,4.81
2022-11-12T03:08:03.594Z,4.79
2022-11-12T03:10:31.135Z,4.67
2022-11-12T03:12:59.562Z,4.67
2022-11-12T03:15:27.363Z,4.69
2022-11-12T03:17:54.003Z,4.88
2022-11-12T03:20:20.947Z,4.99
2022-11-12T03:22:59.578Z,4.98
2022-11-12T03:25:27.164Z,4.92
2022-11-12T03:28:03.099Z,4.82
2022-11-12T03:30:32.525Z,4.68
2022-11-12T03:32:59.027Z,4.57
2022-11-12T03:35:26.789Z,4.53
2022-11-12T03:37:53.636Z,4.65
2022-11-12T03:40:20.374Z,4.84
2022-11-12T03:42:48.634Z,4.92
2022-11-12T03:45:16.104Z,4.97
2022-11-12T03:47:47.915Z,4.99
2022-11-12T03:50:16.324Z,5.04
2022-11-12T03:52:51.504Z,5.04
2022-11-12T03:55:20.180Z,4.98
2022-11-12T03:57:48.964Z,4.98
2022-11-12T04:00:16.329Z,5.01
2022-11-12T04:02:42.839Z,5.05
2022-11-12T04:05:47.689Z,5.00
2022-11-12T04:08:38.272Z,4.94
2022-11-12T04:11:13.773Z,5.02
2022-11-12T04:13:42.244Z,4.94
2022-11-12T04:16:31.387Z,4.94
2022-11-12T04:19:19.021Z,5.00
2022-11-12T04:21:51.198Z,4.98
2022-11-12T04:24:38.277Z,4.90
2022-11-12T04:27:05.737Z,4.85
2022-11-12T04:29:50.944Z,4.91
2022-11-12T04:32:17.790Z,4.97
2022-11-12T04:34:44.377Z,4.93
2022-11-12T04:37:10.991Z,4.88
2022-11-12T04:39:37.471Z,4.78
2022-11-12T04:42:23.073Z,4.79
2022-11-12T04:45:02.630Z,4.56
2022-11-12T04:47:40.230Z,4.61
2022-11-12T04:50:15.918Z,4.65
2022-11-12T04:52:42.496Z,4.79
2022-11-12T04:55:09.625Z,4.80
2022-11-12T04:57:37.082Z,4.88
2022-11-12T05:00:05.398Z,4.99
2022-11-12T05:02:31.779Z,5.05
2022-11-12T05:04:58.223Z,5.03
2022-11-12T05:07:24.687Z,4.97
2022-11-12T05:09:51.163Z,4.89
2022-11-12T05:12:17.555Z,4.88
2022-11-12T05:14:44.053Z,5.05
2022-11-12T05:17:10.446Z,5.07
2022-11-12T05:19:36.989Z,5.00
2022-11-12T05:22:06.299Z,4.93
2022-11-12T05:24:42.512Z,4.89
2022-11-12T05:27:12.608Z,4.77
2022-11-12T05:29:39.141Z,4.66
2022-11-12T05:32:07.361Z,4.61
2022-11-12T05:34:34.245Z,4.53
2022-11-12T05:37:03.000Z,4.51
2022-11-12T05:39:29.496Z,4.63
2022-11-12T05:42:12.428Z,4.74
2022-11-12T05:44:39.758Z,4.86
2022-11-12T05:47:06.373Z,4.90
2022-11-12T05:49:32.876Z,4.94
2022-11-12T05:51:59.416Z,4.85
2022-11-12T05:54:25.980Z,4.67
2022-11-12T05:56:56.018Z,4.54
2022-11-12T05:59:22.656Z,4.42
2022-11-12T06:01:49.348Z,4.27
2022-11-12T06:04:16.865Z,4.27
2022-11-12T06:06:44.713Z,4.19
2022-11-12T06:09:11.371Z,4.27
2022-11-12T06:11:39.153Z,4.10
2022-11-12T06:14:06.014Z,4.03
2022-11-12T06:16:33.207Z,4.06
2022-11-12T06:19:00.111Z,4.06
2022-11-12T06:21:27.964Z,4.11
2022-11-12T06:23:57.851Z,4.13
2022-11-12T06:26:27.108Z,4.18
2022-11-12T06:28:54.203Z,4.32
2022-11-12T06:31:21.653Z,4.36
2022-11-12T06:33:48.973Z,4.21
2022-11-12T06:36:17.794Z,4.11
2022-11-12T06:38:45.381Z,4.07
2022-11-12T06:41:13.499Z,4.00
2022-11-12T06:43:41.036Z,3.94
2022-11-12T06:46:11.593Z,3.97
2022-11-12T06:48:38.358Z,4.05
2022-11-12T06:51:21.441Z,4.17
2022-11-12T06:53:48.663Z,4.06
2022-11-12T06:56:16.285Z,4.11
2022-11-12T06:58:43.147Z,4.38
2022-11-12T07:01:13.350Z,4.29
2022-11-12T07:03:44.391Z,4.33
2022-11-12T07:06:19.401Z,4.44
2022-11-12T07:08:50.485Z,4.55
2022-11-12T07:11:18.558Z,4.64
2022-11-12T07:13:46.118Z,4.66
2022-11-12T07:16:14.183Z,4.69
2022-11-12T07:18:40.740Z,4.64
2022-11-12T07:21:12.317Z,4.72
2022-11-12T07:23:39.262Z,4.89
2022-11-12T07:26:08.883Z,4.98
2022-11-12T07:28:35.535Z,5.00
2022-11-12T07:31:07.535Z,5.09
2022-11-12T07:33:34.739Z,5.19
2022-11-12T07:36:07.524Z,5.23
2022-11-12T07:38:36.278Z,5.18
2022-11-12T07:41:03.942Z,5.21
2022-11-12T07:43:32.231Z,5.38
2022-11-12T07:46:10.281Z,5.66
2022-11-12T07:48:37.246Z,5.92
2022-11-12T07:51:06.321Z,5.93
2022-11-12T07:53:33.215Z,5.74
2022-11-12T07:56:01.600Z,5.70
2022-11-12T07:58:31.774Z,5.72
2022-11-12T08:00:58.802Z,5.93
2022-11-12T08:03:26.035Z,6.16
2022-11-12T08:05:52.763Z,6.33
2022-11-12T08:08:19.322Z,6.54
2022-11-12T08:10:45.899Z,6.66
2022-11-12T08:13:12.497Z,6.75
2022-11-12T08:15:39.095Z,6.89
2022-11-12T08:18:05.785Z,7.02
2022-11-12T08:20:32.383Z,7.19
2022-11-12T08:23:02.174Z,7.30
2022-11-12T08:25:28.870Z,7.35
2022-11-12T08:27:59.994Z,7.51
2022-11-12T08:30:27.587Z,7.78
2022-11-12T08:33:05.269Z,7.97
2022-11-12T08:35:33.179Z,8.14
2022-11-12T08:38:04.944Z,8.28
2022-11-12T08:40:32.869Z,8.38
2022-11-12T08:42:59.568Z,8.52
2022-11-12T08:45:27.168Z,8.71
2022-11-12T08:47:58.518Z,8.90
2022-11-12T08:50:25.198Z,9.06
2022-11-12T08:52:51.863Z,9.20
2022-11-12T08:55:18.631Z,9.36
2022-11-12T08:57:45.362Z,9.53
2022-11-12T09:00:13.254Z,9.68
2022-11-12T09:02:39.989Z,9.86
2022-11-12T09:05:07.181Z,10.09
2022-11-12T09:07:49.303Z,10.38
2022-11-12T09:10:16.812Z,10.55
2022-11-12T09:12:43.420Z,10.68
2022-11-12T09:15:36.178Z,10.92
2022-11-12T09:17:58.440Z,11.11
2022-11-12T09:20:26.447Z,11.48
2022-11-12T09:22:53.013Z,11.66
2022-11-12T09:25:19.676Z,11.57
2022-11-12T09:27:48.575Z,11.29
2022-11-12T09:30:15.702Z,11.15
2022-11-12T09:32:42.393Z,11.07
2022-11-12T09:35:08.992Z,10.81
2022-11-12T09:37:38.370Z,10.84
2022-11-12T09:40:16.192Z,10.73
2022-11-12T09:42:47.167Z,10.83
2022-11-12T09:45:50.330Z,10.74
2022-11-12T09:48:32.664Z,10.68
2022-11-12T09:51:18.633Z,10.47
2022-11-12T09:53:54.614Z,10.41
2022-11-12T09:56:22.099Z,10.55
2022-11-12T09:58:49.810Z,10.66
2022-11-12T10:01:22.550Z,10.57
2022-11-12T10:04:03.293Z,10.49
2022-11-12T10:06:46.598Z,10.48
2022-11-12T10:09:29.172Z,10.52
2022-11-12T10:12:14.309Z,10.32
2022-11-12T10:14:59.415Z,10.45
2022-11-12T10:17:58.531Z,10.66
2022-11-12T10:20:38.456Z,10.99
2022-11-12T10:23:16.954Z,11.62
2022-11-12T10:25:46.446Z,12.23
2022-11-12T10:28:26.118Z,12.50
2022-11-12T10:30:58.783Z,12.65
2022-11-12T10:33:30.527Z,12.52
2022-11-12T10:36:12.603Z,12.51
2022-11-12T10:38:43.765Z,12.61
2022-11-12T10:41:26.207Z,12.75
2022-11-12T10:43:57.805Z,12.78
2022-11-12T10:46:33.555Z,12.59
2022-11-12T10:49:03.702Z,12.67
2022-11-12T10:51:33.520Z,12.60
2022-11-12T10:54:19.184Z,12.39
2022-11-12T10:56:45.716Z,12.46
2022-11-12T10:59:17.239Z,12.38
2022-11-12T11:01:46.105Z,12.33
2022-11-12T11:04:28.842Z,12.34
2022-11-12T11:07:07.098Z,12.32
2022-11-12T11:09:34.711Z,12.47
2022-11-12T11:12:01.644Z,12.42
2022-11-12T11:14:34.347Z,12.44
2022-11-12T11:17:08.500Z,12.60
2022-11-12T11:19:41.056Z,12.51
2022-11-12T11:22:35.391Z,12.59
2022-11-12T11:25:17.956Z,12.57
2022-11-12T11:27:50.630Z,12.56
2022-11-12T11:30:19.672Z,12.67
2022-11-12T11:32:46.157Z,12.70
2022-11-12T11:35:25.168Z,12.66
2022-11-12T11:38:20.336Z,12.79
2022-11-12T11:41:14.641Z,12.63
2022-11-12T11:43:58.969Z,12.72
2022-11-12T11:46:53.064Z,12.61
2022-11-12T11:49:31.947Z,12.61
2022-11-12T11:52:23.570Z,12.84
2022-11-12T11:55:17.857Z,12.35
2022-11-12T11:58:11.923Z,12.27
2022-11-12T12:00:51.313Z,12.44
2022-11-12T12:03:39.534Z,12.52
2022-11-12T12:06:34.958Z,12.49
2022-11-12T12:09:07.969Z,12.35
2022-11-12T12:12:00.620Z,12.25
2022-11-12T12:15:18.368Z,11.91
2022-11-12T12:18:15.571Z,11.87
2022-11-12T12:20:50.955Z,11.80
2022-11-12T12:23:29.057Z,11.93
2022-11-12T12:26:00.455Z,11.65
2022-11-12T12:28:27.315Z,11.84
2022-11-12T12:30:59.955Z,11.68
2022-11-12T12:33:33.606Z,11.86
2022-11-12T12:36:05.491Z,11.99
2022-11-12T12:38:56.933Z,12.01
2022-11-12T12:41:32.892Z,11.98
2022-11-12T12:44:04.914Z,12.00
2022-11-12T12:46:37.457Z,12.04
2022-11-12T12:49:07.292Z,11.94
2022-11-12T12:51:35.214Z,11.91
2022-11-12T12:54:02.432Z,11.94
2022-11-12T12:56:28.981Z,11.75
2022-11-12T12:58:55.657Z,11.72
2022-11-12T13:01:22.633Z,11.75
2022-11-12T13:03:57.637Z,11.79
2022-11-12T13:06:24.119Z,11.75
2022-11-12T13:09:07.535Z,11.74
2022-11-12T13:12:01.984Z,11.71
2022-11-12T13:14:31.211Z,11.70
2022-11-12T13:17:00.094Z,11.65
2022-11-12T13:19:28.527Z,11.56
2022-11-12T13:22:32.703Z,11.61
2022-11-12T13:25:26.115Z,11.59
2022-11-12T13:27:52.638Z,11.54
2022-11-12T13:30:20.837Z,11.47
2022-11-12T13:32:47.399Z,11.49
2022-11-12T13:35:16.887Z,11.54
2022-11-12T13:37:55.776Z,11.45
2022-11-12T13:40:45.450Z,11.40
2022-11-12T13:43:15.035Z,11.35
2022-11-12T13:45:54.099Z,11.25
2022-11-12T13:48:28.952Z,11.20
2022-11-12T13:50:59.115Z,11.22
2022-11-12T13:53:28.553Z,11.22
2022-11-12T13:55:55.903Z,11.10
2022-11-12T13:58:28.903Z,11.04
2022-11-12T14:01:01.292Z,10.84
2022-11-12T14:03:46.067Z,10.79
2022-11-12T14:06:37.164Z,10.84
2022-11-12T14:09:28.226Z,10.72
2022-11-12T14:12:06.983Z,10.70
2022-11-12T14:14:52.185Z,10.69
2022-11-12T14:17:33.658Z,10.68
2022-11-12T14:20:15.384Z,10.67
2022-11-12T14:22:43.804Z,10.62
2022-11-12T14:25:23.225Z,10.61
2022-11-12T14:27:52.045Z,10.54
2022-11-12T14:30:26.052Z,10.51
2022-11-12T14:32:57.698Z,10.46
2022-11-12T14:35:31.736Z,10.35
2022-11-12T14:38:32.328Z,10.29
2022-11-12T14:41:03.811Z,10.22
2022-11-12T14:43:44.383Z,10.18
2022-11-12T14:46:35.493Z,10.14
2022-11-12T14:49:04.274Z,10.07
2022-11-12T14:51:36.846Z,10.04
2022-11-12T14:54:07.059Z,9.99
2022-11-12T14:56:40.010Z,9.92
2022-11-12T14:59:06.986Z,9.88
2022-11-12T15:04:26.256Z,9.61
2022-11-12T15:06:54.979Z,9.60
2022-11-12T15:09:36.974Z,9.66
2022-11-12T15:12:07.358Z,9.55
2022-11-12T15:14:34.799Z,9.46
2022-11-12T15:17:01.893Z,9.34
2022-11-12T15:19:29.768Z,9.22
2022-11-12T15:24:52.691Z,9.06
2022-11-12T15:30:34.411Z,8.83
2022-11-12T15:33:13.716Z,8.80
2022-11-12T15:35:44.061Z,8.81
2022-11-12T15:38:26.032Z,8.70
2022-11-12T15:40:57.666Z,8.65
2022-11-12T15:43:28.680Z,8.58
2022-11-12T15:45:56.488Z,8.56
2022-11-12T15:48:23.346Z,8.59
2022-11-12T15:50:50.215Z,8.49
2022-11-12T15:53:17.055Z,8.41
2022-11-12T15:55:45.309Z,8.36
2022-11-12T15:58:25.846Z,8.31
2022-11-12T16:00:52.488Z,8.21
2022-11-12T16:03:21.185Z,8.19
2022-11-12T16:05:48.458Z,8.10
2022-11-12T16:08:15.026Z,8.10
2022-11-12T16:10:44.152Z,8.06
2022-11-12T16:13:17.404Z,8.03
2022-11-12T16:15:44.103Z,7.96
2022-11-12T16:18:12.203Z,7.90
2022-11-12T16:20:39.156Z,7.92
2022-11-12T16:23:05.784Z,7.88
2022-11-12T16:25:35.707Z,7.94
2022-11-12T16:28:02.945Z,7.97
2022-11-12T16:30:32.591Z,7.99
2022-11-12T16:33:00.547Z,7.91
2022-11-12T16:35:29.928Z,7.86
2022-11-12T16:37:56.598Z,7.83
2022-11-12T16:40:28.641Z,7.78
2022-11-12T16:42:55.145Z,7.85
2022-11-12T16:45:32.156Z,7.87
2022-11-12T16:47:58.739Z,7.89
2022-11-12T16:50:27.761Z,7.97
2022-11-12T16:52:54.796Z,7.92
2022-11-12T16:55:21.506Z,7.95
2022-11-12T16:57:48.344Z,7.88
2022-11-12T17:00:18.042Z,7.85
2022-11-12T17:02:48.318Z,7.86
2022-11-12T17:05:21.627Z,7.80
2022-11-12T17:07:49.447Z,7.88
2022-11-12T17:10:17.003Z,7.82
2022-11-12T17:12:43.698Z,7.69
2022-11-12T17:15:10.471Z,7.57
2022-11-12T17:17:37.249Z,7.51
2022-11-12T17:20:04.185Z,7.41
2022-11-12T17:22:31.492Z,7.32
2022-11-12T17:24:58.110Z,7.21
2022-11-12T17:27:24.612Z,7.24
2022-11-12T17:29:51.357Z,7.10
2022-11-12T17:32:17.953Z,7.10
2022-11-12T17:34:44.741Z,7.12
2022-11-12T17:37:11.315Z,6.98
2022-11-12T17:39:37.848Z,6.89
2022-11-12T17:42:04.480Z,6.87
2022-11-12T17:44:31.037Z,6.88
2022-11-12T17:46:57.649Z,6.91
2022-11-12T17:49:24.300Z,6.89
2022-11-12T17:51:50.931Z,6.82
2022-11-12T17:54:17.453Z,6.78
2022-11-12T17:56:43.944Z,6.70
2022-11-12T17:59:10.386Z,6.62
2022-11-12T18:01:38.013Z,6.64
2022-11-12T18:04:04.860Z,6.66
2022-11-12T18:06:35.290Z,6.65
2022-11-12T18:09:08.197Z,6.60
2022-11-12T18:11:43.534Z,6.56
2022-11-12T18:14:11.020Z,6.47
2022-11-12T18:16:37.976Z,6.47
2022-11-12T18:19:04.713Z,6.39
2022-11-12T18:21:31.507Z,6.32
2022-11-12T18:23:58.081Z,6.35
2022-11-12T18:26:24.646Z,6.41
2022-11-12T18:28:52.925Z,6.53
2022-11-12T18:31:20.298Z,6.63
2022-11-12T18:33:47.175Z,6.68
2022-11-12T18:36:18.956Z,6.72
2022-11-12T18:38:48.502Z,6.78
2022-11-12T18:41:16.571Z,6.74
2022-11-12T18:43:43.520Z,6.59
2022-11-12T18:46:11.360Z,6.33
2022-11-12T18:48:39.189Z,6.10
2022-11-12T18:51:08.452Z,5.94
2022-11-12T18:53:37.455Z,5.94
2022-11-12T18:56:10.504Z,5.98
2022-11-12T18:58:37.198Z,6.02
2022-11-12T19:01:10.424Z,6.09
2022-11-12T19:03:37.318Z,6.21
2022-11-12T19:06:05.739Z,6.27
2022-11-12T19:08:32.952Z,6.37
2022-11-12T19:11:00.808Z,6.45
2022-11-12T19:13:28.054Z,6.50
2022-11-12T19:16:02.223Z,6.56
2022-11-12T19:18:28.919Z,6.65
2022-11-12T19:21:10.589Z,6.60
2022-11-12T19:23:38.558Z,6.57
2022-11-12T19:26:07.308Z,6.49
2022-11-12T19:28:36.827Z,6.45
2022-11-12T19:31:08.671Z,6.35
2022-11-12T19:33:35.257Z,6.21
2022-11-12T19:36:06.815Z,6.10
2022-11-12T19:38:33.731Z,6.05
2022-11-12T19:41:18.982Z,5.95
2022-11-12T19:43:46.371Z,5.89
2022-11-12T19:46:13.025Z,5.90
2022-11-12T19:48:39.636Z,5.98
2022-11-12T19:51:08.807Z,5.80
2022-11-12T19:53:46.130Z,5.55
2022-11-12T19:56:17.190Z,5.47
2022-11-12T19:58:48.254Z,5.55
2022-11-12T20:01:17.941Z,5.57
2022-11-12T20:03:45.077Z,5.47
2022-11-12T20:06:17.790Z,5.44
2022-11-12T20:08:44.916Z,5.43
2022-11-12T20:11:11.704Z,5.45
2022-11-12T20:13:39.409Z,5.41
2022-11-12T20:16:10.253Z,5.40
2022-11-12T20:18:36.957Z,5.32
2022-11-12T20:21:05.063Z,5.26
2022-11-12T20:23:33.887Z,5.25
2022-11-12T20:26:09.746Z,5.23
2022-11-12T20:28:38.194Z,5.16
2022-11-12T20:31:08.072Z,5.00
2022-11-12T20:33:39.256Z,4.89
2022-11-12T20:36:12.775Z,4.85
2022-11-12T20:38:41.606Z,4.87
2022-11-12T20:41:13.487Z,4.96
2022-11-12T20:43:40.193Z,4.87
2022-11-12T20:46:06.768Z,4.79
2022-11-12T20:48:33.543Z,4.81
2022-11-12T20:51:27.376Z,4.73
2022-11-12T20:53:59.260Z,4.75
2022-11-12T20:56:28.417Z,4.78
2022-11-12T20:58:55.154Z,4.69
2022-11-12T21:01:23.611Z,4.67
2022-11-12T21:03:50.811Z,4.70
2022-11-12T21:06:20.497Z,4.79
2022-11-12T21:08:47.570Z,4.78
2022-11-12T21:11:16.745Z,4.62
2022-11-12T21:13:43.785Z,4.54
2022-11-12T21:16:12.248Z,4.50
2022-11-12T21:18:39.946Z,4.50
2022-11-12T21:21:07.859Z,4.49
2022-11-12T21:23:36.771Z,4.53
2022-11-12T21:26:04.476Z,4.41
2022-11-12T21:28:32.903Z,4.36
2022-11-12T21:31:07.392Z,4.33
2022-11-12T21:33:34.791Z,4.36
2022-11-12T21:36:01.844Z,4.30
2022-11-12T21:38:29.478Z,4.40
2022-11-12T21:41:06.416Z,4.58
2022-11-12T21:43:40.553Z,4.64
2022-11-12T21:46:09.205Z,4.53
2022-11-12T21:48:36.893Z,4.49
2022-11-12T21:51:06.351Z,4.57
2022-11-12T21:53:33.899Z,4.53
2022-11-12T21:56:11.037Z,4.52
2022-11-12T21:58:38.446Z,4.53
2022-11-12T22:01:22.310Z,4.58
2022-11-12T22:03:50.654Z,4.53
2022-11-12T22:06:18.042Z,4.61
2022-11-12T22:08:44.784Z,4.61
2022-11-12T22:11:14.761Z,4.73
2022-11-12T22:13:42.541Z,4.72
2022-11-12T22:16:20.216Z,4.80
2022-11-12T22:18:49.291Z,4.77
2022-11-12T22:21:19.006Z,4.83
2022-11-12T22:23:46.227Z,4.96
2022-11-12T22:26:15.584Z,4.89
2022-11-12T22:28:42.699Z,4.92
2022-11-12T22:31:17.587Z,4.69
2022-11-12T22:33:44.270Z,4.65
2022-11-12T22:36:13.248Z,4.67
2022-11-12T22:38:51.061Z,4.73
2022-11-12T22:41:28.606Z,4.63
2022-11-12T22:43:58.023Z,4.77
2022-11-12T22:46:33.498Z,4.88
2022-11-12T22:49:00.619Z,4.96
2022-11-12T22:51:29.746Z,5.04
2022-11-12T22:53:58.627Z,5.02
2022-11-12T22:56:26.898Z,5.01
2022-11-12T22:58:54.030Z,4.87
2022-11-12T23:01:28.153Z,4.76
2022-11-12T23:03:57.725Z,4.70
2022-11-12T23:06:25.233Z,4.63
2022-11-12T23:08:53.846Z,4.62
2022-11-12T23:11:21.052Z,4.69
2022-11-12T23:13:48.591Z,4.70
2022-11-12T23:16:18.244Z,4.47
2022-11-12T23:18:45.103Z,4.41
2022-11-12T23:21:18.706Z,4.36
2022-11-12T23:23:45.560Z,4.39
2022-11-12T23:26:19.049Z,4.36
2022-11-12T23:28:45.742Z,4.32
2022-11-12T23:31:21.255Z,4.33
2022-11-12T23:33:52.600Z,4.22
2022-11-12T23:36:20.612Z,4.08
2022-11-12T23:38:47.721Z,4.05
2022-11-12T23:41:17.198Z,3.96
2022-11-12T23:43:44.367Z,3.91
2022-11-12T23:46:11.851Z,3.78
2022-11-12T23:48:38.533Z,3.74
2022-11-12T23:51:17.786Z,3.67
2022-11-12T23:53:44.439Z,3.56
2022-11-12T23:56:13.495Z,3.64
2022-11-12T23:58:41.347Z,3.67
